Nyiregyhaza, Hungary
Current Conditions -  °F | °C
As of 11:45 AM on Tuesday 21 Oct 2014 (Local Time) from LHDC Reporting Station
Light Rain Light Rain  
Wind Chill: 57°   Ceiling: 3300
Heat Index: 57°   Visibility: 6mi
Dew Point: 54°   Wind: 3mph
Humidity: 88%   Direction: 210°SSW
Pressure: 29.88"   Gusts: NA
Location:  47.96°N, 21.72°E
Report Text: LHDC 210945Z 21003KT 9999 -RA BKN033 OVC083 14/12 Q1012 NOSIG
Loading
Personal Weather Stations






























Interactive Weather Map
Tropical Storm Tracking
New forecast layout! Learn more

10-Day Weather Forecast

Advertisements
Track Severe Weather on mobile